createdAt,value
2023-04-15T00:01:06.049Z,6.42
2023-04-15T00:03:34.688Z,6.42
2023-04-15T00:06:01.742Z,6.38
2023-04-15T00:08:29.120Z,6.30
2023-04-15T00:10:55.748Z,6.30
2023-04-15T00:13:22.435Z,6.30
2023-04-15T00:15:49.136Z,6.34
2023-04-15T00:18:15.775Z,6.37
2023-04-15T00:20:42.435Z,6.43
2023-04-15T00:23:09.576Z,6.43
2023-04-15T00:25:36.172Z,6.41
2023-04-15T00:28:02.784Z,6.37
2023-04-15T00:30:29.396Z,6.37
2023-04-15T00:32:56.054Z,6.33
2023-04-15T00:35:24.096Z,6.27
2023-04-15T00:37:51.493Z,6.20
2023-04-15T00:40:21.081Z,6.17
2023-04-15T00:42:48.189Z,6.16
2023-04-15T00:45:15.692Z,6.11
2023-04-15T00:47:43.592Z,6.07
2023-04-15T00:50:11.366Z,6.09
2023-04-15T00:52:38.335Z,6.16
2023-04-15T00:55:06.200Z,6.15
2023-04-15T00:57:33.403Z,6.20
2023-04-15T01:00:01.190Z,6.18
2023-04-15T01:02:28.213Z,6.16
2023-04-15T01:04:56.817Z,6.19
2023-04-15T01:07:23.548Z,6.26
2023-04-15T01:09:50.293Z,6.31
2023-04-15T01:12:17.647Z,6.38
2023-04-15T01:14:46.428Z,6.39
2023-04-15T01:17:13.393Z,6.41
2023-04-15T01:19:40.846Z,6.44
2023-04-15T01:22:07.591Z,6.44
2023-04-15T01:24:35.890Z,6.44
2023-04-15T01:27:02.605Z,6.45
2023-04-15T01:29:29.680Z,6.48
2023-04-15T01:31:56.984Z,6.53
2023-04-15T01:34:23.869Z,6.48
2023-04-15T01:36:51.226Z,6.38
2023-04-15T01:39:17.945Z,6.39
2023-04-15T01:41:44.722Z,6.41
2023-04-15T01:44:11.658Z,6.22
2023-04-15T01:46:38.379Z,6.06
2023-04-15T01:49:05.053Z,6.03
2023-04-15T01:51:32.196Z,5.91
2023-04-15T01:53:58.931Z,5.89
2023-04-15T01:56:25.566Z,5.95
2023-04-15T01:58:52.917Z,5.95
2023-04-15T02:01:20.250Z,5.95
2023-04-15T02:03:48.058Z,5.86
2023-04-15T02:06:15.066Z,5.97
2023-04-15T02:08:41.712Z,6.00
2023-04-15T02:11:08.528Z,6.23
2023-04-15T02:13:35.326Z,6.35
2023-04-15T02:16:03.427Z,6.40
2023-04-15T02:18:30.154Z,6.11
2023-04-15T02:20:58.710Z,6.20
2023-04-15T02:23:25.626Z,6.08
2023-04-15T02:25:53.848Z,6.03
2023-04-15T02:28:21.775Z,6.03
2023-04-15T02:30:53.062Z,5.99
2023-04-15T02:33:21.078Z,5.95
2023-04-15T02:35:47.765Z,5.83
2023-04-15T02:38:16.910Z,5.74
2023-04-15T02:40:43.517Z,5.72
2023-04-15T02:43:10.118Z,5.62
2023-04-15T02:45:36.892Z,5.37
2023-04-15T02:48:06.296Z,5.42
2023-04-15T02:50:33.479Z,5.46
2023-04-15T02:53:01.763Z,5.64
2023-04-15T02:55:29.040Z,5.73
2023-04-15T02:57:55.892Z,5.63
2023-04-15T03:00:25.346Z,5.70
2023-04-15T03:02:56.581Z,5.82
2023-04-15T03:05:26.556Z,5.92
2023-04-15T03:07:53.645Z,5.95
2023-04-15T03:10:20.869Z,5.89
2023-04-15T03:12:47.720Z,5.82
2023-04-15T03:15:14.539Z,5.73
2023-04-15T03:17:41.407Z,5.69
2023-04-15T03:20:08.853Z,5.68
2023-04-15T03:22:35.573Z,5.61
2023-04-15T03:25:03.573Z,5.57
2023-04-15T03:27:30.200Z,5.53
2023-04-15T03:29:56.925Z,5.57
2023-04-15T03:32:23.621Z,5.54
2023-04-15T03:34:50.377Z,5.67
2023-04-15T03:37:17.077Z,5.75
2023-04-15T03:39:43.705Z,5.71
2023-04-15T03:42:10.325Z,5.77
2023-04-15T03:44:37.393Z,5.75
2023-04-15T03:47:04.009Z,5.84
2023-04-15T03:49:30.873Z,5.74
2023-04-15T03:51:57.514Z,5.69
2023-04-15T03:54:24.165Z,5.61
2023-04-15T03:56:51.080Z,5.62
2023-04-15T03:59:17.719Z,5.57
2023-04-15T04:01:44.474Z,5.51
2023-04-15T04:04:12.753Z,5.44
2023-04-15T04:06:39.555Z,5.54
2023-04-15T04:09:06.183Z,5.77
2023-04-15T04:11:33.158Z,5.61
2023-04-15T04:13:59.789Z,5.63
2023-04-15T04:16:26.607Z,5.72
2023-04-15T04:18:53.419Z,5.79
2023-04-15T04:21:21.082Z,5.73
2023-04-15T04:23:47.793Z,5.84
2023-04-15T04:26:14.468Z,5.88
2023-04-15T04:28:41.077Z,5.92
2023-04-15T04:31:08.065Z,5.80
2023-04-15T04:33:34.770Z,5.76
2023-04-15T04:36:01.539Z,5.77
2023-04-15T04:38:28.218Z,5.77
2023-04-15T04:40:54.883Z,5.90
2023-04-15T04:43:21.643Z,5.94
2023-04-15T04:45:48.253Z,5.92
2023-04-15T04:48:15.040Z,6.00
2023-04-15T04:50:42.008Z,6.06
2023-04-15T04:53:09.030Z,6.06
2023-04-15T04:55:37.125Z,6.10
2023-04-15T04:58:03.874Z,6.23
2023-04-15T05:00:30.595Z,6.36
2023-04-15T05:02:57.550Z,6.64
2023-04-15T05:05:24.268Z,6.77
2023-04-15T05:07:51.259Z,6.84
2023-04-15T05:10:18.426Z,7.09
2023-04-15T05:12:45.084Z,7.21
2023-04-15T05:15:12.186Z,7.45
2023-04-15T05:17:38.877Z,7.81
2023-04-15T05:20:06.098Z,7.51
2023-04-15T05:22:32.854Z,7.71
2023-04-15T05:24:59.476Z,8.06
2023-04-15T05:27:26.168Z,8.30
2023-04-15T05:29:52.772Z,8.36
2023-04-15T05:32:19.435Z,8.73
2023-04-15T05:34:46.341Z,8.74
2023-04-15T05:37:13.092Z,8.60
2023-04-15T05:39:39.909Z,8.52
2023-04-15T05:42:06.912Z,8.64
2023-04-15T05:44:33.523Z,8.82
2023-04-15T05:47:00.302Z,9.19
2023-04-15T05:49:27.565Z,9.69
2023-04-15T05:51:54.300Z,9.83
2023-04-15T05:54:23.321Z,9.96
2023-04-15T05:56:50.010Z,10.26
2023-04-15T05:59:16.875Z,10.31
2023-04-15T06:01:43.944Z,10.36
2023-04-15T06:04:11.674Z,10.66
2023-04-15T06:06:38.745Z,10.86
2023-04-15T06:09:05.463Z,10.79
2023-04-15T06:11:32.190Z,11.31
2023-04-15T06:13:58.792Z,11.30
2023-04-15T06:16:25.495Z,11.31
2023-04-15T06:18:52.179Z,11.39
2023-04-15T06:21:19.360Z,11.52
2023-04-15T06:23:46.511Z,11.66
2023-04-15T06:26:13.133Z,11.75
2023-04-15T06:28:39.788Z,11.79
2023-04-15T06:31:06.479Z,11.99
2023-04-15T06:33:33.169Z,12.27
2023-04-15T06:35:59.736Z,12.34
2023-04-15T06:38:26.590Z,12.58
2023-04-15T06:40:53.257Z,12.80
2023-04-15T06:43:20.920Z,12.70
2023-04-15T06:45:47.639Z,12.53
2023-04-15T06:48:14.456Z,12.63
2023-04-15T06:50:41.355Z,12.64
2023-04-15T06:53:08.044Z,12.68
2023-04-15T06:55:34.700Z,12.68
2023-04-15T06:58:01.420Z,12.87
2023-04-15T07:00:28.800Z,13.05
2023-04-15T07:02:55.999Z,12.69
2023-04-15T07:05:22.778Z,12.71
2023-04-15T07:07:49.364Z,12.23
2023-04-15T07:10:16.143Z,12.51
2023-04-15T07:12:42.806Z,12.54
2023-04-15T07:15:10.042Z,12.59
2023-04-15T07:17:37.199Z,12.93
2023-04-15T07:20:05.021Z,12.61
2023-04-15T07:22:31.672Z,12.65
2023-04-15T07:24:58.263Z,12.64
2023-04-15T07:27:24.880Z,12.30
2023-04-15T07:29:52.176Z,12.37
2023-04-15T07:32:19.172Z,12.41
2023-04-15T07:34:45.885Z,12.65
2023-04-15T07:37:12.727Z,12.81
2023-04-15T07:39:39.383Z,13.00
2023-04-15T07:42:06.041Z,12.80
2023-04-15T07:44:32.732Z,12.49
2023-04-15T07:46:59.423Z,12.56
2023-04-15T07:49:26.118Z,12.66
2023-04-15T07:51:53.274Z,12.47
2023-04-15T07:54:19.978Z,12.66
2023-04-15T07:56:46.603Z,12.56
2023-04-15T07:59:13.282Z,12.86
2023-04-15T08:01:39.887Z,13.04
2023-04-15T08:04:06.705Z,13.37
2023-04-15T08:06:33.466Z,13.37
2023-04-15T08:09:00.533Z,13.42
2023-04-15T08:11:27.891Z,13.55
2023-04-15T08:13:54.664Z,13.70
2023-04-15T08:16:23.568Z,13.51
2023-04-15T08:18:52.297Z,13.58
2023-04-15T08:21:20.133Z,13.37
2023-04-15T08:23:48.478Z,13.79
2023-04-15T08:26:15.264Z,13.65
2023-04-15T08:28:43.038Z,13.64
2023-04-15T08:31:09.945Z,13.73
2023-04-15T08:33:36.978Z,13.62
2023-04-15T08:36:04.587Z,13.89
2023-04-15T08:38:31.435Z,13.63
2023-04-15T08:41:00.405Z,13.89
2023-04-15T08:43:40.194Z,14.54
2023-04-15T08:46:07.522Z,14.55
2023-04-15T08:48:35.910Z,14.50
2023-04-15T08:51:03.214Z,14.80
2023-04-15T08:53:30.633Z,14.87
2023-04-15T08:55:58.963Z,15.47
2023-04-15T08:58:26.304Z,15.16
2023-04-15T09:00:53.221Z,14.60
2023-04-15T09:03:21.933Z,14.70
2023-04-15T09:05:48.677Z,14.59
2023-04-15T09:08:15.825Z,14.65
2023-04-15T09:10:42.722Z,14.83
2023-04-15T09:13:09.529Z,14.89
2023-04-15T09:15:39.002Z,14.94
2023-04-15T09:18:07.007Z,15.39
2023-04-15T09:20:42.451Z,16.16
2023-04-15T09:23:14.366Z,15.93
2023-04-15T09:25:45.832Z,15.68
2023-04-15T09:28:13.552Z,15.03
2023-04-15T09:30:46.609Z,15.04
2023-04-15T09:33:14.827Z,14.88
2023-04-15T09:35:41.533Z,14.99
2023-04-15T09:38:09.908Z,15.41
2023-04-15T09:40:39.580Z,15.62
2023-04-15T09:43:07.824Z,15.29
2023-04-15T09:45:36.472Z,14.82
2023-04-15T09:48:26.884Z,14.50
2023-04-15T09:50:57.669Z,14.77
2023-04-15T09:53:26.102Z,15.00
2023-04-15T09:55:58.142Z,15.14
2023-04-15T09:58:35.733Z,15.87
2023-04-15T10:01:04.784Z,16.04
2023-04-15T10:03:34.419Z,16.35
2023-04-15T10:06:02.183Z,16.49
2023-04-15T10:08:31.040Z,17.12
2023-04-15T10:10:57.995Z,17.30
2023-04-15T10:13:28.698Z,17.12
2023-04-15T10:15:58.849Z,16.75
2023-04-15T10:18:28.085Z,17.15
2023-04-15T10:20:55.636Z,16.68
2023-04-15T10:23:24.615Z,16.47
2023-04-15T10:25:54.498Z,16.91
2023-04-15T10:28:22.978Z,16.29
2023-04-15T10:30:50.166Z,16.10
2023-04-15T10:33:26.677Z,15.32
2023-04-15T10:35:55.765Z,15.37
2023-04-15T10:38:42.829Z,16.99
2023-04-15T10:41:34.679Z,16.46
2023-04-15T10:44:04.835Z,17.00
2023-04-15T10:46:39.183Z,16.01
2023-04-15T10:49:11.393Z,15.96
2023-04-15T10:51:42.122Z,15.61
2023-04-15T10:54:17.598Z,15.68
2023-04-15T10:57:11.776Z,16.26
2023-04-15T10:59:59.756Z,15.56
2023-04-15T11:02:48.822Z,15.35
2023-04-15T11:05:17.379Z,16.02
2023-04-15T11:07:49.692Z,16.33
2023-04-15T11:10:25.941Z,15.84
2023-04-15T11:12:54.878Z,15.08
2023-04-15T11:15:39.064Z,15.37
2023-04-15T11:18:12.719Z,15.22
2023-04-15T11:20:47.320Z,15.96
2023-04-15T11:23:19.281Z,16.22
2023-04-15T11:25:46.395Z,16.13
2023-04-15T11:28:14.419Z,15.49
2023-04-15T11:30:42.606Z,15.52
2023-04-15T11:33:12.148Z,15.53
2023-04-15T11:35:40.973Z,15.72
2023-04-15T11:38:13.151Z,15.70
2023-04-15T11:40:40.959Z,17.05
2023-04-15T11:43:17.162Z,16.90
2023-04-15T11:45:53.119Z,16.63
2023-04-15T11:48:22.145Z,15.98
2023-04-15T11:51:06.294Z,17.29
2023-04-15T11:53:42.922Z,16.91
2023-04-15T11:56:11.678Z,17.08
2023-04-15T11:58:42.595Z,17.12
2023-04-15T12:01:09.195Z,16.61
2023-04-15T12:03:41.136Z,17.23
2023-04-15T12:06:14.267Z,17.19
2023-04-15T12:08:59.185Z,16.98
2023-04-15T12:11:47.486Z,16.82
2023-04-15T12:14:26.545Z,16.15
2023-04-15T12:16:58.245Z,16.55
2023-04-15T12:19:27.693Z,16.44
2023-04-15T12:22:02.292Z,16.87
2023-04-15T12:24:33.188Z,16.84
2023-04-15T12:27:04.628Z,16.56
2023-04-15T12:29:32.794Z,16.46
2023-04-15T12:32:09.130Z,16.50
2023-04-15T12:34:40.604Z,15.89
2023-04-15T12:37:12.103Z,15.68
2023-04-15T12:39:41.530Z,15.70
2023-04-15T12:42:08.948Z,15.93
2023-04-15T12:44:36.796Z,15.88
2023-04-15T12:47:03.631Z,15.34
2023-04-15T12:49:31.179Z,15.52
2023-04-15T12:52:00.216Z,15.44
2023-04-15T12:54:27.986Z,15.93
2023-04-15T12:56:55.476Z,15.86
2023-04-15T12:59:23.846Z,15.81
2023-04-15T13:01:52.339Z,15.43
2023-04-15T13:04:20.785Z,15.69
2023-04-15T13:06:47.642Z,15.86
2023-04-15T13:09:15.723Z,15.73
2023-04-15T13:11:42.622Z,15.46
2023-04-15T13:14:11.784Z,15.55
2023-04-15T13:16:38.714Z,15.72
2023-04-15T13:19:05.617Z,16.00
2023-04-15T13:21:35.489Z,15.82
2023-04-15T13:24:03.102Z,15.40
2023-04-15T13:26:29.994Z,15.33
2023-04-15T13:28:56.740Z,15.38
2023-04-15T13:31:23.401Z,15.16
2023-04-15T13:33:50.077Z,15.04
2023-04-15T13:36:16.727Z,14.79
2023-04-15T13:38:43.673Z,15.22
2023-04-15T13:41:10.554Z,15.14
2023-04-15T13:43:37.671Z,15.18
2023-04-15T13:46:04.505Z,14.94
2023-04-15T13:48:31.647Z,14.99
2023-04-15T13:50:58.277Z,14.96
2023-04-15T13:53:37.700Z,14.83
2023-04-15T13:56:09.600Z,14.99
2023-04-15T13:58:37.400Z,15.11
2023-04-15T14:01:06.062Z,15.20
2023-04-15T14:03:34.525Z,15.00
2023-04-15T14:06:01.458Z,14.96
2023-04-15T14:08:28.047Z,15.31
2023-04-15T14:10:54.632Z,15.74
2023-04-15T14:13:21.338Z,15.78
2023-04-15T14:15:47.981Z,15.93
2023-04-15T14:18:14.632Z,16.13
2023-04-15T14:20:41.300Z,15.89
2023-04-15T14:23:08.080Z,15.63
2023-04-15T14:25:34.750Z,15.71
2023-04-15T14:28:02.402Z,15.94
2023-04-15T14:30:29.015Z,15.88
2023-04-15T14:32:55.773Z,16.14
2023-04-15T14:35:24.721Z,16.32
2023-04-15T14:37:51.590Z,16.63
2023-04-15T14:40:18.246Z,16.21
2023-04-15T14:42:44.950Z,16.12
2023-04-15T14:45:11.745Z,15.89
2023-04-15T14:47:38.482Z,15.77
2023-04-15T14:50:08.079Z,15.82
2023-04-15T14:52:38.727Z,15.43
2023-04-15T14:55:07.582Z,15.28
2023-04-15T14:57:34.266Z,15.40
2023-04-15T15:00:00.865Z,15.29
2023-04-15T15:02:38.536Z,15.34
2023-04-15T15:05:07.276Z,15.51
2023-04-15T15:07:34.140Z,15.25
2023-04-15T15:10:00.828Z,15.48
2023-04-15T15:12:27.566Z,15.61
2023-04-15T15:14:55.975Z,15.77
2023-04-15T15:17:22.814Z,15.85
2023-04-15T15:19:49.471Z,15.75
2023-04-15T15:22:16.266Z,15.40
2023-04-15T15:24:42.891Z,15.48
2023-04-15T15:27:10.048Z,15.40
2023-04-15T15:29:37.908Z,15.42
2023-04-15T15:32:04.662Z,15.59
2023-04-15T15:34:34.183Z,15.10
2023-04-15T15:37:00.942Z,15.06
2023-04-15T15:39:28.093Z,14.91
2023-04-15T15:41:55.160Z,15.04
2023-04-15T15:44:21.789Z,14.90
2023-04-15T15:46:49.998Z,14.75
2023-04-15T15:49:16.687Z,14.62
2023-04-15T15:51:43.558Z,14.66
2023-04-15T15:54:12.266Z,14.70
2023-04-15T15:56:39.537Z,14.51
2023-04-15T15:59:06.507Z,14.52
2023-04-15T16:01:33.408Z,14.54
2023-04-15T16:04:01.003Z,14.61
2023-04-15T16:06:28.196Z,14.71
2023-04-15T16:08:54.951Z,14.78
2023-04-15T16:11:21.568Z,14.49
2023-04-15T16:13:48.255Z,14.52
2023-04-15T16:16:15.242Z,14.44
2023-04-15T16:18:41.896Z,14.29
2023-04-15T16:21:08.824Z,14.18
2023-04-15T16:23:36.720Z,14.17
2023-04-15T16:26:06.681Z,14.08
2023-04-15T16:28:33.150Z,14.06
2023-04-15T16:30:59.981Z,14.02
2023-04-15T16:33:26.996Z,13.96
2023-04-15T16:35:53.728Z,13.88
2023-04-15T16:38:20.857Z,13.80
2023-04-15T16:40:47.573Z,13.76
2023-04-15T16:43:14.199Z,13.65
2023-04-15T16:45:40.948Z,13.52
2023-04-15T16:48:07.586Z,13.48
2023-04-15T16:50:34.231Z,13.44
2023-04-15T16:53:01.607Z,13.46
2023-04-15T16:55:31.304Z,13.41
2023-04-15T16:58:02.918Z,13.26
2023-04-15T17:00:31.662Z,13.01
2023-04-15T17:02:59.269Z,12.99
2023-04-15T17:05:30.798Z,13.02
2023-04-15T17:07:57.636Z,12.92
2023-04-15T17:10:24.564Z,12.87
2023-04-15T17:12:52.723Z,12.86
2023-04-15T17:15:19.961Z,12.73
2023-04-15T17:17:49.654Z,12.60
2023-04-15T17:20:17.544Z,12.51
2023-04-15T17:22:44.587Z,12.33
2023-04-15T17:25:11.219Z,12.25
2023-04-15T17:27:38.696Z,12.16
2023-04-15T17:30:07.233Z,12.10
2023-04-15T17:32:34.980Z,12.11
2023-04-15T17:35:04.320Z,12.04
2023-04-15T17:37:30.993Z,12.07
2023-04-15T17:39:57.577Z,12.07
2023-04-15T17:42:24.197Z,11.95
2023-04-15T17:44:50.925Z,11.86
2023-04-15T17:47:18.235Z,11.78
2023-04-15T17:49:44.967Z,11.65
2023-04-15T17:52:11.647Z,11.52
2023-04-15T17:54:38.303Z,11.53
2023-04-15T17:57:04.948Z,11.47
2023-04-15T17:59:33.761Z,11.36
2023-04-15T18:02:01.582Z,11.30
2023-04-15T18:04:28.706Z,11.25
2023-04-15T18:06:55.437Z,11.22
2023-04-15T18:09:22.204Z,11.30
2023-04-15T18:11:49.054Z,11.22
2023-04-15T18:14:27.101Z,11.24
2023-04-15T18:16:57.804Z,11.19
2023-04-15T18:19:25.835Z,11.10
2023-04-15T18:21:52.567Z,11.12
2023-04-15T18:24:19.362Z,10.94
2023-04-15T18:26:48.736Z,10.87
2023-04-15T18:29:15.865Z,10.92
2023-04-15T18:31:42.623Z,10.87
2023-04-15T18:34:09.338Z,10.85
2023-04-15T18:36:36.013Z,10.70
2023-04-15T18:39:02.810Z,10.68
2023-04-15T18:41:29.775Z,10.59
2023-04-15T18:43:56.472Z,10.53
2023-04-15T18:46:23.193Z,10.60
2023-04-15T18:48:49.882Z,10.67
2023-04-15T18:51:16.564Z,10.74
2023-04-15T18:53:43.220Z,10.84
2023-04-15T18:56:09.976Z,10.87
2023-04-15T18:59:25.980Z,10.67
2023-04-15T19:01:24.166Z,9.89
2023-04-15T19:03:51.046Z,9.77
2023-04-15T19:06:18.749Z,9.72
2023-04-15T19:08:45.486Z,9.85
2023-04-15T19:11:12.095Z,9.93
2023-04-15T19:13:38.733Z,9.91
2023-04-15T19:16:05.809Z,9.93
2023-04-15T19:18:32.419Z,9.77
2023-04-15T19:20:59.169Z,9.69
2023-04-15T19:23:25.953Z,9.59
2023-04-15T19:25:52.643Z,9.68
2023-04-15T19:28:19.637Z,9.55
2023-04-15T19:30:46.539Z,9.59
2023-04-15T19:33:13.260Z,9.56
2023-04-15T19:35:40.820Z,9.50
2023-04-15T19:38:09.726Z,9.36
2023-04-15T19:40:36.338Z,9.48
2023-04-15T19:43:02.979Z,9.55
2023-04-15T19:45:29.590Z,9.50
2023-04-15T19:47:56.281Z,9.40
2023-04-15T19:50:27.681Z,9.38
2023-04-15T19:52:54.412Z,9.30
2023-04-15T19:55:21.082Z,9.33
2023-04-15T19:57:47.807Z,9.28
2023-04-15T20:00:14.464Z,9.30
2023-04-15T20:02:41.361Z,9.28
2023-04-15T20:05:11.182Z,9.32
2023-04-15T20:07:39.654Z,9.37
2023-04-15T20:10:08.551Z,9.51
2023-04-15T20:12:50.533Z,9.58
2023-04-15T20:15:21.695Z,9.61
2023-04-15T20:17:48.359Z,9.61
2023-04-15T20:20:15.363Z,9.54
2023-04-15T20:22:42.199Z,9.55
2023-04-15T20:25:09.061Z,9.58
2023-04-15T20:27:35.810Z,9.62
2023-04-15T20:30:04.772Z,9.62
2023-04-15T20:32:35.437Z,9.62
2023-04-15T20:35:04.311Z,9.54
2023-04-15T20:37:33.303Z,9.57
2023-04-15T20:40:00.819Z,9.50
2023-04-15T20:42:28.619Z,9.61
2023-04-15T20:44:55.671Z,9.57
2023-04-15T20:47:23.464Z,9.64
2023-04-15T20:49:50.096Z,9.63
2023-04-15T20:52:16.776Z,9.61
2023-04-15T20:54:44.840Z,9.64
2023-04-15T20:57:11.482Z,9.59
2023-04-15T20:59:38.383Z,9.52
2023-04-15T21:02:06.199Z,9.46
2023-04-15T21:04:32.934Z,9.40
2023-04-15T21:06:59.587Z,9.44
2023-04-15T21:09:26.452Z,9.31
2023-04-15T21:12:01.227Z,9.35
2023-04-15T21:14:28.874Z,9.37
2023-04-15T21:16:58.261Z,9.44
2023-04-15T21:19:24.962Z,9.45
2023-04-15T21:21:51.655Z,9.50
2023-04-15T21:24:18.265Z,9.54
2023-04-15T21:26:44.880Z,9.45
2023-04-15T21:29:12.085Z,9.32
2023-04-15T21:31:39.111Z,9.26
2023-04-15T21:34:07.068Z,9.28
2023-04-15T21:36:34.019Z,9.30
2023-04-15T21:39:01.064Z,9.39
2023-04-15T21:41:28.174Z,9.48
2023-04-15T21:43:54.962Z,9.48
2023-04-15T21:46:25.319Z,9.43
2023-04-15T21:48:53.730Z,9.47
2023-04-15T21:51:20.601Z,9.54
2023-04-15T21:53:47.328Z,9.58
2023-04-15T21:56:14.042Z,9.59
2023-04-15T21:58:40.665Z,9.61
2023-04-15T22:01:07.451Z,9.60
2023-04-15T22:03:35.296Z,9.50
2023-04-15T22:06:03.451Z,9.50
2023-04-15T22:08:38.538Z,9.39
2023-04-15T22:11:21.597Z,9.61
2023-04-15T22:13:48.263Z,9.61
2023-04-15T22:16:14.851Z,9.58
2023-04-15T22:18:41.465Z,9.69
2023-04-15T22:21:08.563Z,9.73
2023-04-15T22:23:35.210Z,9.80
2023-04-15T22:26:02.000Z,9.89
2023-04-15T22:28:28.725Z,9.79
2023-04-15T22:30:56.113Z,9.90
2023-04-15T22:33:22.791Z,9.94
2023-04-15T22:35:49.428Z,10.11
2023-04-15T22:38:16.044Z,10.10
2023-04-15T22:40:42.612Z,10.14
2023-04-15T22:43:09.250Z,10.07
2023-04-15T22:45:36.085Z,10.10
2023-04-15T22:48:02.748Z,10.08
2023-04-15T22:50:29.415Z,10.06
2023-04-15T22:52:56.035Z,10.02
2023-04-15T22:55:22.768Z,9.98
2023-04-15T22:57:49.406Z,9.97
2023-04-15T23:00:16.062Z,10.04
2023-04-15T23:02:42.713Z,9.92
2023-04-15T23:05:12.749Z,9.88
2023-04-15T23:07:40.162Z,9.85
2023-04-15T23:10:08.108Z,9.83
2023-04-15T23:12:34.950Z,9.83
2023-04-15T23:15:01.624Z,9.87
2023-04-15T23:17:28.339Z,9.90
2023-04-15T23:19:54.942Z,10.06
2023-04-15T23:22:21.575Z,10.29
2023-04-15T23:24:48.275Z,10.35
2023-04-15T23:27:14.857Z,10.42
2023-04-15T23:29:41.734Z,10.51
2023-04-15T23:32:11.489Z,10.55
2023-04-15T23:34:38.137Z,10.61
2023-04-15T23:37:05.020Z,10.60
2023-04-15T23:39:32.122Z,10.56
2023-04-15T23:41:58.701Z,10.50
2023-04-15T23:44:25.300Z,10.53
2023-04-15T23:46:51.942Z,10.40
2023-04-15T23:49:20.232Z,10.40
2023-04-15T23:51:47.257Z,10.40
2023-04-15T23:54:15.332Z,10.37
2023-04-15T23:56:41.931Z,10.24
2023-04-15T23:59:08.894Z,10.28
